createdAt,value
2023-03-16T00:00:29.798Z,828.00
2023-03-16T00:01:29.407Z,826.00
2023-03-16T00:02:29.411Z,825.00
2023-03-16T00:03:29.465Z,823.00
2023-03-16T00:04:29.413Z,827.00
2023-03-16T00:05:29.419Z,826.00
2023-03-16T00:06:29.407Z,824.00
2023-03-16T00:07:29.414Z,824.00
2023-03-16T00:08:29.416Z,824.00
2023-03-16T00:09:29.458Z,821.00
2023-03-16T00:10:29.534Z,824.00
2023-03-16T00:11:29.417Z,823.00
2023-03-16T00:12:29.427Z,822.00
2023-03-16T00:13:29.410Z,822.00
2023-03-16T00:14:29.402Z,820.00
2023-03-16T00:15:29.411Z,820.00
2023-03-16T00:16:29.433Z,820.00
2023-03-16T00:17:29.420Z,818.00
2023-03-16T00:18:29.417Z,817.00
2023-03-16T00:19:29.416Z,817.00
2023-03-16T00:20:29.556Z,818.00
2023-03-16T00:21:29.526Z,818.00
2023-03-16T00:22:29.427Z,816.00
2023-03-16T00:23:29.414Z,814.00
2023-03-16T00:24:29.450Z,811.00
2023-03-16T00:25:29.474Z,810.00
2023-03-16T00:26:29.436Z,808.00
2023-03-16T00:27:29.420Z,810.00
2023-03-16T00:28:29.421Z,811.00
2023-03-16T00:29:29.410Z,808.00
2023-03-16T00:30:29.703Z,810.00
2023-03-16T00:31:29.476Z,809.00
2023-03-16T00:32:29.525Z,806.00
2023-03-16T00:33:29.415Z,804.00
2023-03-16T00:34:29.410Z,803.00
2023-03-16T00:35:29.420Z,805.00
2023-03-16T00:36:29.422Z,804.00
2023-03-16T00:37:29.469Z,800.00
2023-03-16T00:38:29.422Z,799.00
2023-03-16T00:39:29.422Z,795.00
2023-03-16T00:40:29.832Z,792.00
2023-03-16T00:41:29.483Z,792.00
2023-03-16T00:42:29.529Z,794.00
2023-03-16T00:43:29.448Z,795.00
2023-03-16T00:44:29.451Z,795.00
2023-03-16T00:45:29.474Z,795.00
2023-03-16T00:46:29.458Z,794.00
2023-03-16T00:47:29.455Z,797.00
2023-03-16T00:48:29.542Z,799.00
2023-03-16T00:49:29.462Z,796.00
2023-03-16T00:50:29.915Z,801.00
2023-03-16T00:51:29.474Z,798.00
2023-03-16T00:52:29.497Z,796.00
2023-03-16T00:53:29.581Z,797.00
2023-03-16T00:54:29.475Z,796.00
2023-03-16T00:55:29.522Z,795.00
2023-03-16T00:56:29.494Z,793.00
2023-03-16T00:57:29.508Z,790.00
2023-03-16T00:58:29.594Z,795.00
2023-03-16T00:59:29.516Z,797.00
2023-03-16T01:00:29.731Z,796.00
2023-03-16T01:01:30.550Z,794.00
2023-03-16T01:02:29.538Z,790.00
2023-03-16T01:03:29.817Z,789.00
2023-03-16T01:04:29.553Z,784.00
2023-03-16T01:05:29.550Z,782.00
2023-03-16T01:06:29.572Z,782.00
2023-03-16T01:07:29.562Z,782.00
2023-03-16T01:08:29.565Z,785.00
2023-03-16T01:09:29.567Z,783.00
2023-03-16T01:10:29.915Z,786.00
2023-03-16T01:11:29.584Z,783.00
2023-03-16T01:12:29.599Z,780.00
2023-03-16T01:13:29.616Z,781.00
2023-03-16T01:14:29.615Z,780.00
2023-03-16T01:15:30.514Z,782.00
2023-03-16T01:16:29.661Z,781.00
2023-03-16T01:17:29.642Z,782.00
2023-03-16T01:18:29.672Z,782.00
2023-03-16T01:19:29.659Z,785.00
2023-03-16T01:20:29.955Z,785.00
2023-03-16T01:21:29.682Z,784.00
2023-03-16T01:22:29.695Z,783.00
2023-03-16T01:23:29.701Z,779.00
2023-03-16T01:24:29.716Z,780.00
2023-03-16T01:25:29.725Z,778.00
2023-03-16T01:26:29.737Z,777.00
2023-03-16T01:27:29.759Z,775.00
2023-03-16T01:28:29.771Z,775.00
2023-03-16T01:29:29.793Z,777.00
2023-03-16T01:30:29.904Z,779.00
2023-03-16T01:31:29.807Z,779.00
2023-03-16T01:32:29.834Z,774.00
2023-03-16T01:33:29.831Z,774.00
2023-03-16T01:34:29.849Z,774.00
2023-03-16T01:35:29.905Z,773.00
2023-03-16T01:36:29.853Z,775.00
2023-03-16T01:37:29.871Z,774.00
2023-03-16T01:38:29.882Z,772.00
2023-03-16T01:39:29.902Z,771.00
2023-03-16T01:40:30.168Z,770.00
2023-03-16T01:41:29.936Z,770.00
2023-03-16T01:42:29.924Z,768.00
2023-03-16T01:43:29.939Z,767.00
2023-03-16T01:44:29.937Z,766.00
2023-03-16T01:45:29.955Z,765.00
2023-03-16T01:46:30.119Z,762.00
2023-03-16T01:47:29.976Z,762.00
2023-03-16T01:48:29.983Z,762.00
2023-03-16T01:49:30.002Z,757.00
2023-03-16T02:40:30.967Z,735.00
2023-03-16T02:41:30.619Z,732.00
2023-03-16T02:42:30.630Z,733.00
2023-03-16T02:43:30.704Z,732.00
2023-03-16T02:44:30.649Z,729.00
2023-03-16T02:45:30.644Z,729.00
2023-03-16T02:46:30.689Z,732.00
2023-03-16T02:47:30.655Z,732.00
2023-03-16T02:48:30.681Z,731.00
2023-03-16T02:49:30.693Z,729.00
2023-03-16T02:50:31.578Z,728.00
2023-03-16T02:51:30.700Z,728.00
2023-03-16T02:52:30.696Z,722.00
2023-03-16T02:53:30.696Z,721.00
2023-03-16T02:54:30.693Z,719.00
2023-03-16T02:55:30.699Z,718.00
2023-03-16T02:56:31.611Z,719.00
2023-03-16T02:57:30.695Z,717.00
2023-03-16T02:58:30.709Z,717.00
2023-03-16T02:59:30.710Z,719.00
2023-03-16T03:00:30.713Z,721.00
2023-03-16T03:01:30.709Z,722.00
2023-03-16T03:02:30.708Z,720.00
2023-03-16T03:03:30.740Z,723.00
2023-03-16T03:04:30.788Z,722.00
2023-03-16T03:05:30.730Z,721.00
2023-03-16T03:06:30.727Z,720.00
2023-03-16T03:07:30.713Z,718.00
2023-03-16T03:08:30.722Z,717.00
2023-03-16T03:09:30.717Z,716.00
2023-03-16T03:10:30.730Z,716.00
2023-03-16T03:11:30.742Z,719.00
2023-03-16T03:12:30.730Z,718.00
2023-03-16T03:13:30.744Z,718.00
2023-03-16T03:14:30.740Z,718.00
2023-03-16T03:15:30.774Z,713.00
2023-03-16T03:16:30.792Z,713.00
2023-03-16T03:17:30.766Z,715.00
2023-03-16T03:18:30.783Z,711.00
2023-03-16T03:19:31.559Z,712.00
2023-03-16T03:20:30.981Z,713.00
2023-03-16T03:21:30.773Z,714.00
2023-03-16T03:22:30.770Z,713.00
2023-03-16T03:23:30.777Z,709.00
2023-03-16T03:24:30.765Z,708.00
2023-03-16T03:25:30.777Z,709.00
2023-03-16T03:26:30.781Z,710.00
2023-03-16T03:27:30.828Z,709.00
2023-03-16T03:28:31.077Z,709.00
2023-03-16T03:29:30.809Z,707.00
2023-03-16T03:30:30.829Z,705.00
2023-03-16T03:31:30.879Z,703.00
2023-03-16T03:32:30.888Z,702.00
2023-03-16T03:33:31.075Z,700.00
2023-03-16T03:34:30.860Z,700.00
2023-03-16T03:35:30.886Z,703.00
2023-03-16T03:36:30.854Z,705.00
2023-03-16T03:37:31.576Z,704.00
2023-03-16T03:38:30.880Z,703.00
2023-03-16T03:39:30.861Z,699.00
2023-03-16T03:40:31.006Z,700.00
2023-03-16T03:41:30.880Z,700.00
2023-03-16T03:42:30.888Z,699.00
2023-03-16T03:43:30.917Z,700.00
2023-03-16T03:44:30.902Z,700.00
2023-03-16T03:45:30.986Z,701.00
2023-03-16T03:46:31.076Z,700.00
2023-03-16T03:47:30.954Z,698.00
2023-03-16T03:48:31.056Z,697.00
2023-03-16T03:49:31.087Z,698.00
2023-03-16T03:50:30.970Z,698.00
2023-03-16T03:51:30.985Z,699.00
2023-03-16T03:52:31.004Z,700.00
2023-03-16T03:53:31.023Z,702.00
2023-03-16T03:54:31.029Z,702.00
2023-03-16T03:55:31.043Z,702.00
2023-03-16T03:56:31.040Z,703.00
2023-03-16T03:57:31.060Z,703.00
2023-03-16T03:58:31.059Z,702.00
2023-03-16T03:59:31.098Z,703.00
2023-03-16T04:00:31.092Z,699.00
2023-03-16T04:01:31.097Z,698.00
2023-03-16T04:02:31.206Z,696.00
2023-03-16T04:03:31.187Z,697.00
2023-03-16T04:04:31.116Z,694.00
2023-03-16T04:05:31.115Z,695.00
2023-03-16T04:06:31.115Z,693.00
2023-03-16T04:07:31.146Z,690.00
2023-03-16T04:08:31.126Z,689.00
2023-03-16T04:09:31.156Z,688.00
2023-03-16T04:10:31.159Z,688.00
2023-03-16T04:11:31.162Z,689.00
2023-03-16T04:12:32.075Z,688.00
2023-03-16T04:13:31.142Z,689.00
2023-03-16T04:14:31.204Z,688.00
2023-03-16T04:15:31.137Z,690.00
2023-03-16T04:16:31.179Z,688.00
2023-03-16T04:17:31.138Z,686.00
2023-03-16T04:18:31.152Z,684.00
2023-03-16T04:19:31.144Z,685.00
2023-03-16T04:20:31.143Z,684.00
2023-03-16T04:21:31.159Z,681.00
2023-03-16T04:22:31.155Z,680.00
2023-03-16T04:23:31.159Z,680.00
2023-03-16T04:24:31.165Z,679.00
2023-03-16T04:25:31.165Z,680.00
2023-03-16T04:27:31.183Z,681.00
2023-03-16T04:28:31.174Z,682.00
2023-03-16T04:29:31.185Z,678.00
2023-03-16T04:30:31.195Z,681.00
2023-03-16T04:31:31.196Z,683.00
2023-03-16T04:32:31.215Z,684.00
2023-03-16T04:42:31.217Z,674.00
2023-03-16T04:43:31.224Z,672.00
2023-03-16T04:44:31.230Z,673.00
2023-03-16T04:45:31.232Z,673.00
2023-03-16T04:46:31.272Z,675.00
2023-03-16T04:47:31.225Z,672.00
2023-03-16T04:48:31.229Z,669.00
2023-03-16T04:49:31.233Z,668.00
2023-03-16T04:50:31.241Z,670.00
2023-03-16T04:51:31.237Z,670.00
2023-03-16T04:52:31.242Z,667.00
2023-03-16T04:53:31.242Z,667.00
2023-03-16T04:54:31.244Z,668.00
2023-03-16T04:55:31.249Z,669.00
2023-03-16T04:56:31.321Z,669.00
2023-03-16T04:57:31.237Z,670.00
2023-03-16T04:58:31.242Z,670.00
2023-03-16T04:59:31.233Z,672.00
2023-03-16T05:00:31.304Z,671.00
2023-03-16T05:01:31.363Z,672.00
2023-03-16T05:02:31.267Z,672.00
2023-03-16T05:03:31.273Z,674.00
2023-03-16T05:04:31.258Z,673.00
2023-03-16T05:05:31.408Z,673.00
2023-03-16T05:06:31.304Z,673.00
2023-03-16T05:07:31.353Z,674.00
2023-03-16T05:08:31.361Z,675.00
2023-03-16T05:09:31.304Z,673.00
2023-03-16T05:10:31.311Z,676.00
2023-03-16T05:11:31.317Z,677.00
2023-03-16T05:12:31.317Z,677.00
2023-03-16T05:13:31.324Z,675.00
2023-03-16T05:14:31.330Z,672.00
2023-03-16T05:15:31.351Z,671.00
2023-03-16T05:16:31.350Z,672.00
2023-03-16T05:17:31.337Z,673.00
2023-03-16T05:18:31.340Z,669.00
2023-03-16T05:19:31.352Z,668.00
2023-03-16T05:20:31.410Z,668.00
2023-03-16T05:21:31.381Z,666.00
2023-03-16T05:22:31.392Z,665.00
2023-03-16T05:23:31.392Z,666.00
2023-03-16T05:24:31.471Z,663.00
2023-03-16T05:25:31.406Z,662.00
2023-03-16T05:26:31.456Z,660.00
2023-03-16T05:27:31.420Z,659.00
2023-03-16T05:28:31.413Z,656.00
2023-03-16T05:29:32.104Z,654.00
2023-03-16T05:30:31.502Z,656.00
2023-03-16T05:31:31.558Z,657.00
2023-03-16T05:32:31.506Z,656.00
2023-03-16T05:33:31.445Z,658.00
2023-03-16T05:34:31.456Z,656.00
2023-03-16T05:35:31.648Z,656.00
2023-03-16T05:36:31.544Z,658.00
2023-03-16T05:37:31.465Z,655.00
2023-03-16T05:38:31.460Z,654.00
2023-03-16T05:39:31.463Z,654.00
2023-03-16T05:40:31.493Z,654.00
2023-03-16T05:41:31.474Z,653.00
2023-03-16T05:42:31.480Z,651.00
2023-03-16T05:43:31.476Z,651.00
2023-03-16T05:44:31.473Z,651.00
2023-03-16T05:45:31.500Z,650.00
2023-03-16T05:46:31.532Z,650.00
2023-03-16T05:47:31.490Z,648.00
2023-03-16T05:48:31.495Z,651.00
2023-03-16T05:49:31.489Z,648.00
2023-03-16T05:50:31.495Z,648.00
2023-03-16T05:51:31.502Z,649.00
2023-03-16T05:52:31.514Z,651.00
2023-03-16T05:53:31.504Z,654.00
2023-03-16T05:54:31.515Z,654.00
2023-03-16T05:55:31.510Z,653.00
2023-03-16T05:56:31.509Z,654.00
2023-03-16T05:57:31.508Z,655.00
2023-03-16T05:58:31.527Z,656.00
2023-03-16T05:59:31.543Z,655.00
2023-03-16T06:00:31.539Z,657.00
2023-03-16T06:01:31.559Z,655.00
2023-03-16T06:02:31.586Z,653.00
2023-03-16T06:03:31.579Z,652.00
2023-03-16T06:04:31.615Z,651.00
2023-03-16T06:05:31.582Z,649.00
2023-03-16T06:06:31.588Z,648.00
2023-03-16T06:07:31.599Z,650.00
2023-03-16T06:08:31.612Z,649.00
2023-03-16T06:09:31.656Z,652.00
2023-03-16T06:10:31.626Z,649.00
2023-03-16T06:11:31.633Z,647.00
2023-03-16T06:12:31.641Z,649.00
2023-03-16T06:13:31.700Z,649.00
2023-03-16T06:14:31.650Z,648.00
2023-03-16T06:15:31.674Z,647.00
2023-03-16T06:16:31.701Z,674.00
2023-03-16T06:17:31.668Z,697.00
2023-03-16T06:18:31.771Z,702.00
2023-03-16T06:19:31.686Z,704.00
2023-03-16T06:20:31.759Z,712.00
2023-03-16T06:21:31.799Z,705.00
2023-03-16T06:22:31.852Z,707.00
2023-03-16T06:23:31.732Z,749.00
2023-03-16T06:24:31.735Z,758.00
2023-03-16T06:25:31.804Z,808.00
2023-03-16T06:26:31.752Z,897.00
2023-03-16T06:27:31.747Z,974.00
2023-03-16T06:28:31.763Z,994.00
2023-03-16T06:29:31.845Z,1092.00
2023-03-16T06:30:31.846Z,1089.00
2023-03-16T06:31:31.962Z,1090.00
2023-03-16T06:32:32.923Z,1199.00
2023-03-16T06:33:31.914Z,1208.00
2023-03-16T06:34:31.905Z,1209.00
2023-03-16T06:35:32.630Z,1252.00
2023-03-16T06:36:32.146Z,1275.00
2023-03-16T06:37:32.563Z,1296.00
2023-03-16T06:38:31.866Z,1334.00
2023-03-16T06:39:31.866Z,1400.00
2023-03-16T06:40:32.558Z,1417.00
2023-03-16T06:41:31.862Z,1448.00
2023-03-16T06:42:31.854Z,1462.00
2023-03-16T06:43:31.889Z,1502.00
2023-03-16T06:44:31.877Z,1546.00
2023-03-16T06:45:32.003Z,1590.00
2023-03-16T06:46:32.561Z,1674.00
2023-03-16T06:47:31.970Z,1724.00
2023-03-16T06:48:31.896Z,1746.00
2023-03-16T06:49:31.895Z,1788.00
2023-03-16T06:50:31.899Z,1812.00
2023-03-16T06:51:31.891Z,1827.00
2023-03-16T06:52:31.877Z,1845.00
2023-03-16T06:53:31.864Z,1867.00
2023-03-16T06:54:31.858Z,1889.00
2023-03-16T06:55:31.876Z,1901.00
2023-03-16T06:56:31.886Z,1948.00
2023-03-16T06:57:31.828Z,2017.00
2023-03-16T06:58:31.864Z,2013.00
2023-03-16T06:59:31.854Z,2032.00
2023-03-16T07:00:31.951Z,2077.00
2023-03-16T07:01:31.989Z,2106.00
2023-03-16T07:02:31.854Z,2131.00
2023-03-16T07:03:31.823Z,2141.00
2023-03-16T07:04:31.848Z,2188.00
2023-03-16T07:05:31.785Z,2210.00
2023-03-16T07:06:31.759Z,2238.00
2023-03-16T07:07:31.870Z,2266.00
2023-03-16T07:08:31.770Z,2295.00
2023-03-16T07:09:31.758Z,2324.00
2023-03-16T07:10:31.770Z,2359.00
2023-03-16T07:11:31.746Z,2381.00
2023-03-16T07:12:31.786Z,2575.00
2023-03-16T07:13:31.726Z,2609.00
2023-03-16T07:14:31.741Z,2585.00
2023-03-16T07:15:31.746Z,2571.00
2023-03-16T07:16:32.635Z,2583.00
2023-03-16T07:17:31.747Z,2592.00
2023-03-16T07:18:31.811Z,2655.00
2023-03-16T07:20:31.872Z,2699.00
2023-03-16T07:21:31.806Z,2752.00
2023-03-16T07:22:31.800Z,2599.00
2023-03-16T07:23:31.823Z,2732.00
2023-03-16T07:24:31.848Z,2747.00
2023-03-16T07:25:31.851Z,2521.00
2023-03-16T07:26:31.856Z,2584.00
2023-03-16T07:27:31.851Z,2618.00
2023-03-16T07:28:31.848Z,2622.00
2023-03-16T07:50:32.413Z,3438.00
2023-03-16T07:51:32.474Z,3483.00
2023-03-16T07:52:32.580Z,3504.00
2023-03-16T07:53:32.538Z,3516.00
2023-03-16T07:54:32.580Z,3531.00
2023-03-16T07:55:32.652Z,3549.00
2023-03-16T07:56:47.447Z,3571.00
2023-03-16T07:57:33.645Z,3600.00
2023-03-16T07:58:32.621Z,3633.00
2023-03-16T07:59:32.609Z,3665.00
2023-03-16T08:00:32.666Z,3702.00
2023-03-16T08:01:32.556Z,3739.00
2023-03-16T08:02:32.594Z,3740.00
2023-03-16T08:03:32.573Z,3790.00
2023-03-16T08:04:32.485Z,3791.00
2023-03-16T08:05:32.466Z,3856.00
2023-03-16T08:06:32.464Z,3925.00
2023-03-16T08:07:32.505Z,3934.00
2023-03-16T08:08:32.549Z,3937.00
2023-03-16T08:09:32.579Z,3946.00
2023-03-16T08:10:32.944Z,3957.00
2023-03-16T08:11:32.646Z,4095.00
2023-03-16T08:12:32.709Z,4080.00
2023-03-16T08:13:32.714Z,4095.00
2023-03-16T08:14:32.728Z,4144.00
2023-03-16T08:15:32.781Z,4172.00
2023-03-16T08:16:32.853Z,3850.00
2023-03-16T08:17:32.832Z,3894.00
2023-03-16T08:18:32.852Z,3963.00
2023-03-16T08:19:32.872Z,3913.00
2023-03-16T08:20:32.951Z,3856.00
2023-03-16T08:21:32.948Z,3476.00
2023-03-16T08:22:33.188Z,2879.00
2023-03-16T08:23:32.949Z,3062.00
2023-03-16T08:24:33.014Z,3306.00
2023-03-16T08:25:32.924Z,3416.00
2023-03-16T08:26:32.916Z,3560.00
2023-03-16T08:59:32.659Z,2866.00
2023-03-16T09:00:32.736Z,2885.00
2023-03-16T09:01:32.748Z,2920.00
2023-03-16T09:02:32.713Z,2948.00
2023-03-16T09:03:32.750Z,2971.00
2023-03-16T09:04:32.922Z,2987.00
2023-03-16T09:05:32.785Z,3031.00
2023-03-16T09:06:32.796Z,3059.00
2023-03-16T09:07:32.825Z,3083.00
2023-03-16T09:08:32.903Z,3121.00
2023-03-16T09:09:32.918Z,3165.00
2023-03-16T09:10:32.969Z,3085.00
2023-03-16T09:11:32.994Z,3053.00
2023-03-16T09:12:33.042Z,3205.00
2023-03-16T09:13:33.079Z,3104.00
2023-03-16T09:20:33.482Z,1008.00
2023-03-16T09:24:33.494Z,1302.00
2023-03-16T09:32:33.940Z,1659.00
2023-03-16T09:37:44.744Z,1826.00
2023-03-16T09:39:33.951Z,1922.00
2023-03-16T09:40:33.946Z,1935.00
2023-03-16T09:41:33.918Z,1954.00
2023-03-16T09:42:33.904Z,2010.00
2023-03-16T09:43:33.894Z,2056.00
2023-03-16T09:44:33.891Z,2087.00
2023-03-16T09:45:33.891Z,2109.00
2023-03-16T09:46:35.024Z,2173.00
2023-03-16T09:47:33.826Z,2196.00
2023-03-16T09:48:33.821Z,2244.00
2023-03-16T09:49:33.793Z,2318.00
2023-03-16T09:50:47.147Z,2323.00
2023-03-16T09:51:34.761Z,2407.00
2023-03-16T09:52:33.736Z,2404.00
2023-03-16T09:53:33.707Z,2432.00
2023-03-16T09:54:33.715Z,2500.00
2023-03-16T09:55:33.673Z,2537.00
2023-03-16T09:56:33.642Z,2544.00
2023-03-16T09:57:33.622Z,2558.00
2023-03-16T09:58:33.601Z,2602.00
2023-03-16T09:59:33.626Z,2640.00
2023-03-16T10:00:33.558Z,2705.00
2023-03-16T10:01:34.247Z,2724.00
2023-03-16T10:02:33.542Z,2827.00
2023-03-16T10:03:33.620Z,2828.00
2023-03-16T10:04:33.601Z,2834.00
2023-03-16T10:05:33.609Z,2846.00
2023-03-16T10:06:33.619Z,2945.00
2023-03-16T10:07:33.625Z,2953.00
2023-03-16T10:08:33.686Z,3055.00
2023-03-16T10:09:33.628Z,3033.00
2023-03-16T10:10:33.629Z,3046.00
2023-03-16T10:11:33.663Z,3073.00
2023-03-16T10:12:33.613Z,3140.00
2023-03-16T10:13:33.603Z,2964.00
2023-03-16T10:14:33.609Z,3174.00
2023-03-16T10:15:33.585Z,3179.00
2023-03-16T10:16:33.665Z,3173.00
2023-03-16T10:17:33.655Z,3160.00
2023-03-16T10:18:33.603Z,3111.00
2023-03-16T10:19:33.599Z,3094.00
2023-03-16T10:20:33.722Z,3097.00
2023-03-16T10:21:33.635Z,3101.00
2023-03-16T10:22:34.210Z,3100.00
2023-03-16T10:23:33.683Z,3099.00
2023-03-16T15:50:33.344Z,1622.00
2023-03-16T15:52:33.286Z,1626.00
2023-03-16T15:57:33.243Z,1619.00
2023-03-16T16:12:33.341Z,1619.00
2023-03-16T16:14:33.405Z,1618.00
2023-03-16T16:18:33.533Z,1618.00
2023-03-16T16:27:33.680Z,1614.00
2023-03-16T16:40:33.426Z,1604.00
2023-03-16T16:45:33.330Z,1597.00
2023-03-16T16:46:33.235Z,1598.00
2023-03-16T16:47:33.198Z,1594.00
2023-03-16T17:28:33.347Z,1564.00
2023-03-16T17:30:33.452Z,1565.00
2023-03-16T17:31:33.456Z,1562.00
2023-03-16T17:32:33.523Z,1564.00
2023-03-16T17:33:33.617Z,1564.00
2023-03-16T17:34:33.578Z,1564.00
2023-03-16T17:35:33.688Z,1561.00
2023-03-16T17:36:33.744Z,1553.00
2023-03-16T17:37:33.709Z,1550.00
2023-03-16T17:38:33.753Z,1546.00
2023-03-16T17:39:33.865Z,1543.00
2023-03-16T17:40:33.842Z,1547.00
2023-03-16T17:41:33.894Z,1548.00
2023-03-16T17:42:33.948Z,1545.00
2023-03-16T17:43:33.987Z,1547.00
2023-03-16T17:44:34.034Z,1548.00
2023-03-16T17:45:34.065Z,1552.00
2023-03-16T17:46:34.167Z,1550.00
2023-03-16T17:47:34.157Z,1551.00
2023-03-16T17:48:34.212Z,1553.00
2023-03-16T17:49:34.246Z,1554.00
2023-03-16T17:50:34.290Z,1546.00
2023-03-16T17:51:34.351Z,1541.00
2023-03-16T17:52:34.347Z,1538.00
2023-03-16T17:53:34.353Z,1543.00
2023-03-16T17:54:34.369Z,1542.00
2023-03-16T17:55:34.383Z,1539.00
2023-03-16T17:56:34.408Z,1538.00
2023-03-16T17:57:34.390Z,1531.00
2023-03-16T17:58:34.386Z,1528.00
2023-03-16T17:59:34.380Z,1528.00
2023-03-16T18:00:34.335Z,1528.00
2023-03-16T18:01:34.401Z,1526.00
2023-03-16T18:04:34.342Z,1525.00
2023-03-16T18:05:34.326Z,1527.00
2023-03-16T18:06:34.302Z,1523.00
2023-03-16T19:02:33.662Z,1467.00
2023-03-16T19:03:33.659Z,1470.00
2023-03-16T19:04:33.657Z,1466.00
2023-03-16T19:05:33.631Z,1465.00
2023-03-16T19:06:33.619Z,1468.00
2023-03-16T19:07:33.610Z,1470.00
2023-03-16T19:08:33.598Z,1472.00
2023-03-16T19:09:33.612Z,1474.00
2023-03-16T19:10:33.605Z,1473.00
2023-03-16T19:11:33.599Z,1471.00
2023-03-16T19:12:33.601Z,1470.00
2023-03-16T19:13:33.624Z,1468.00
2023-03-16T19:14:33.617Z,1472.00
2023-03-16T19:15:33.602Z,1469.00
2023-03-16T19:16:33.636Z,1463.00
2023-03-16T19:17:33.603Z,1461.00
2023-03-16T19:18:33.596Z,1462.00
2023-03-16T19:19:33.556Z,1468.00
2023-03-16T19:20:33.590Z,1464.00
2023-03-16T19:21:33.603Z,1465.00
2023-03-16T19:22:33.574Z,1467.00
2023-03-16T19:23:33.696Z,1469.00
2023-03-16T19:24:33.546Z,1468.00
2023-03-16T19:25:33.550Z,1467.00
2023-03-16T19:26:33.560Z,1466.00
2023-03-16T19:27:33.562Z,1465.00
2023-03-16T19:28:33.560Z,1462.00
2023-03-16T19:29:33.556Z,1456.00
2023-03-16T19:30:33.558Z,1460.00
2023-03-16T19:31:33.654Z,1462.00
2023-03-16T19:32:33.617Z,1462.00
2023-03-16T19:33:33.561Z,1461.00
2023-03-16T19:34:33.558Z,1461.00
2023-03-16T19:35:50.383Z,1460.00
2023-03-16T19:36:34.579Z,1458.00
2023-03-16T19:37:33.504Z,1456.00
2023-03-16T19:38:33.504Z,1458.00
2023-03-16T19:39:33.489Z,1458.00
2023-03-16T19:40:33.477Z,1455.00
2023-03-16T19:41:33.487Z,1451.00
2023-03-16T19:42:33.464Z,1446.00
2023-03-16T19:43:33.441Z,1444.00
2023-03-16T19:44:33.432Z,1445.00
2023-03-16T19:45:33.500Z,1446.00
2023-03-16T19:46:33.417Z,1451.00
2023-03-16T19:47:33.391Z,1452.00
2023-03-16T19:48:33.384Z,1453.00
2023-03-16T19:49:33.451Z,1452.00
2023-03-16T19:50:33.360Z,1453.00
2023-03-16T19:51:33.397Z,1452.00
2023-03-16T19:52:33.321Z,1451.00
2023-03-16T19:53:33.313Z,1455.00
2023-03-16T19:54:33.355Z,1456.00
2023-03-16T19:55:33.287Z,1456.00
2023-03-16T19:56:33.281Z,1452.00
2023-03-16T19:57:33.263Z,1447.00
2023-03-16T19:58:33.259Z,1444.00
2023-03-16T19:59:33.229Z,1442.00
2023-03-16T20:00:33.233Z,1443.00
2023-03-16T20:01:33.311Z,1440.00
2023-03-16T20:02:33.985Z,1439.00
2023-03-16T20:03:33.197Z,1435.00
2023-03-16T20:04:33.245Z,1433.00
2023-03-16T20:05:33.202Z,1430.00
2023-03-16T20:06:33.214Z,1429.00
2023-03-16T20:07:33.228Z,1429.00
2023-03-16T20:08:33.930Z,1432.00
2023-03-16T20:09:33.257Z,1430.00
2023-03-16T20:10:33.260Z,1435.00
2023-03-16T20:11:33.256Z,1435.00
2023-03-16T20:12:33.277Z,1432.00
2023-03-16T20:13:33.302Z,1430.00
2023-03-16T20:14:33.307Z,1431.00
2023-03-16T20:15:33.333Z,1432.00
2023-03-16T20:16:33.396Z,1433.00
2023-03-16T20:17:33.365Z,1434.00
2023-03-16T20:18:33.370Z,1435.00
2023-03-16T20:19:33.394Z,1438.00
2023-03-16T20:20:33.406Z,1435.00
2023-03-16T20:21:33.409Z,1438.00
2023-03-16T20:22:33.418Z,1433.00
2023-03-16T20:23:33.433Z,1430.00
2023-03-16T20:24:33.447Z,1429.00
2023-03-16T20:25:33.470Z,1429.00
2023-03-16T20:26:33.495Z,1430.00
2023-03-16T20:27:33.495Z,1428.00
2023-03-16T20:28:33.533Z,1426.00
2023-03-16T20:29:33.537Z,1426.00
2023-03-16T20:30:33.747Z,1423.00
2023-03-16T20:31:33.557Z,1424.00
2023-03-16T20:32:33.619Z,1427.00
2023-03-16T20:33:33.592Z,1426.00
2023-03-16T20:34:33.616Z,1427.00
2023-03-16T20:35:33.709Z,1429.00
2023-03-16T20:36:33.695Z,1426.00
2023-03-16T20:37:33.759Z,1426.00
2023-03-16T20:38:33.717Z,1428.00
2023-03-16T20:39:33.760Z,1430.00
2023-03-16T20:40:33.736Z,1427.00
2023-03-16T20:41:33.784Z,1425.00
2023-03-16T20:42:33.795Z,1424.00
2023-03-16T20:43:34.465Z,1423.00
2023-03-16T20:44:33.822Z,1423.00
2023-03-16T20:45:33.842Z,1422.00
2023-03-16T20:46:33.884Z,1420.00
2023-03-16T20:47:33.891Z,1423.00
2023-03-16T20:48:33.916Z,1426.00
2023-03-16T20:49:34.446Z,1425.00
2023-03-16T20:50:34.011Z,1424.00
2023-03-16T20:51:33.985Z,1429.00
2023-03-16T20:52:34.022Z,1431.00
2023-03-16T20:53:34.054Z,1427.00
2023-03-16T20:54:34.079Z,1426.00
2023-03-16T20:55:34.093Z,1422.00
2023-03-16T20:56:34.130Z,1418.00
2023-03-16T20:57:34.162Z,1417.00
2023-03-16T20:58:34.945Z,1420.00
2023-03-16T20:59:34.227Z,1421.00
2023-03-16T21:00:34.243Z,1425.00
2023-03-16T21:01:34.301Z,1422.00
2023-03-16T21:02:34.333Z,1419.00
2023-03-16T21:03:34.331Z,1419.00
2023-03-16T21:04:34.392Z,1421.00
2023-03-16T21:05:34.410Z,1418.00
2023-03-16T21:06:34.428Z,1416.00
2023-03-16T21:07:34.458Z,1413.00
2023-03-16T21:08:34.489Z,1414.00
2023-03-16T21:09:34.519Z,1416.00
2023-03-16T21:10:34.533Z,1418.00
2023-03-16T21:11:34.559Z,1418.00
2023-03-16T21:12:34.601Z,1420.00
2023-03-16T21:13:34.622Z,1419.00
2023-03-16T21:14:34.656Z,1416.00
2023-03-16T21:15:34.678Z,1418.00
2023-03-16T21:16:34.714Z,1418.00
2023-03-16T21:17:34.734Z,1415.00
2023-03-16T21:18:34.767Z,1413.00
2023-03-16T21:19:34.819Z,1410.00
2023-03-16T21:20:34.823Z,1414.00
2023-03-16T21:21:34.858Z,1414.00
2023-03-16T21:22:35.002Z,1414.00
2023-03-16T21:23:34.926Z,1415.00
2023-03-16T21:24:35.950Z,1413.00
2023-03-16T21:25:34.987Z,1416.00
2023-03-16T21:26:35.016Z,1418.00
2023-03-16T21:27:35.070Z,1419.00
2023-03-16T21:28:35.098Z,1425.00
2023-03-16T21:29:35.126Z,1427.00
2023-03-16T21:30:35.160Z,1428.00
2023-03-16T21:31:35.247Z,1429.00
2023-03-16T21:32:35.249Z,1423.00
2023-03-16T21:33:35.270Z,1420.00
2023-03-16T21:34:35.305Z,1414.00
2023-03-16T21:35:35.404Z,1411.00
2023-03-16T21:36:35.353Z,1406.00
2023-03-16T21:37:35.400Z,1402.00
2023-03-16T21:38:35.439Z,1397.00
2023-03-16T21:39:35.482Z,1397.00
2023-03-16T21:40:36.466Z,1397.00
2023-03-16T21:41:35.549Z,1396.00
2023-03-16T21:42:35.573Z,1393.00
2023-03-16T21:43:35.613Z,1395.00
2023-03-16T21:44:35.660Z,1391.00
2023-03-16T21:45:35.694Z,1392.00
2023-03-16T21:46:35.763Z,1391.00
2023-03-16T21:47:35.767Z,1391.00
2023-03-16T21:48:35.804Z,1388.00
2023-03-16T21:49:35.844Z,1391.00
2023-03-16T21:50:35.883Z,1392.00
2023-03-16T21:51:35.939Z,1390.00
2023-03-16T21:52:35.980Z,1393.00
2023-03-16T21:53:36.009Z,1389.00
2023-03-16T21:54:36.053Z,1383.00
2023-03-16T21:55:36.098Z,1382.00
2023-03-16T21:56:36.126Z,1383.00
2023-03-16T21:57:36.171Z,1379.00
2023-03-16T21:58:36.226Z,1376.00
2023-03-16T21:59:36.264Z,1379.00
2023-03-16T22:00:36.311Z,1379.00
2023-03-16T22:01:39.466Z,1380.00
2023-03-16T22:02:37.629Z,1382.00
2023-03-16T22:03:50.093Z,1381.00
2023-03-16T22:04:37.986Z,1379.00
2023-03-16T22:05:36.485Z,1373.00
2023-03-16T22:06:37.462Z,1371.00
2023-03-16T22:07:36.453Z,1365.00
2023-03-16T22:08:36.457Z,1368.00
2023-03-16T22:09:36.442Z,1370.00
2023-03-16T22:10:36.427Z,1371.00
2023-03-16T22:11:36.425Z,1367.00
2023-03-16T22:12:36.418Z,1368.00
2023-03-16T22:13:36.435Z,1366.00
2023-03-16T22:14:36.485Z,1365.00
2023-03-16T22:15:36.519Z,1366.00
2023-03-16T22:16:36.699Z,1364.00
2023-03-16T22:17:36.622Z,1366.00
2023-03-16T22:18:36.675Z,1367.00
2023-03-16T22:19:36.723Z,1371.00
2023-03-16T22:20:36.772Z,1370.00
2023-03-16T22:21:36.829Z,1367.00